createdAt,value
2023-01-29T00:01:16.527Z,42.85
2023-01-29T00:03:47.092Z,43.45
2023-01-29T00:06:19.339Z,41.72
2023-01-29T00:08:49.845Z,41.30
2023-01-29T00:11:22.019Z,42.55
2023-01-29T00:13:53.047Z,43.42
2023-01-29T00:16:24.513Z,42.57
2023-01-29T00:18:58.072Z,41.65
2023-01-29T00:21:30.242Z,41.82
2023-01-29T00:24:01.381Z,41.74
2023-01-29T00:26:32.590Z,41.46
2023-01-29T00:29:03.248Z,42.03
2023-01-29T00:31:33.871Z,41.91
2023-01-29T00:34:05.286Z,42.41
2023-01-29T00:36:36.936Z,43.56
2023-01-29T00:39:09.165Z,42.59
2023-01-29T00:41:58.049Z,42.77
2023-01-29T00:44:46.656Z,44.29
2023-01-29T00:47:34.202Z,43.26
2023-01-29T00:50:07.869Z,43.33
2023-01-29T00:52:41.160Z,43.27
2023-01-29T00:55:12.695Z,43.06
2023-01-29T00:57:43.285Z,42.50
2023-01-29T01:00:17.174Z,41.56
2023-01-29T01:03:05.614Z,42.16
2023-01-29T01:05:39.390Z,41.21
2023-01-29T01:08:12.056Z,41.29
2023-01-29T01:10:42.732Z,42.79
2023-01-29T01:13:14.372Z,41.65
2023-01-29T01:15:44.951Z,41.35
2023-01-29T01:18:16.399Z,41.19
2023-01-29T01:20:48.539Z,41.23
2023-01-29T01:23:20.689Z,41.85
2023-01-29T01:25:51.282Z,42.33
2023-01-29T01:28:23.517Z,41.92
2023-01-29T01:30:55.557Z,42.82
2023-01-29T01:33:26.299Z,43.07
2023-01-29T01:35:56.887Z,42.19
2023-01-29T01:38:27.720Z,43.44
2023-01-29T01:40:58.249Z,42.82
2023-01-29T01:43:28.901Z,40.87
2023-01-29T01:45:59.533Z,41.13
2023-01-29T01:48:30.514Z,42.16
2023-01-29T01:51:05.295Z,43.74
2023-01-29T01:53:44.920Z,42.70
2023-01-29T01:56:21.132Z,42.07
2023-01-29T01:58:57.586Z,42.52
2023-01-29T02:01:30.572Z,42.39
2023-01-29T02:04:25.163Z,40.77
2023-01-29T02:07:17.427Z,42.71
2023-01-29T02:10:08.839Z,42.40
2023-01-29T02:12:41.705Z,40.51
2023-01-29T02:15:13.975Z,41.03
2023-01-29T02:17:46.096Z,41.66
2023-01-29T02:20:25.876Z,44.43
2023-01-29T02:23:11.395Z,42.15
2023-01-29T02:26:04.620Z,41.65
2023-01-29T02:28:43.950Z,41.18
2023-01-29T02:31:26.529Z,41.95
2023-01-29T02:34:12.053Z,42.43
2023-01-29T02:36:54.960Z,41.11
2023-01-29T02:39:28.336Z,41.48
2023-01-29T02:42:01.823Z,41.56
2023-01-29T02:44:44.039Z,41.35
2023-01-29T02:47:44.762Z,42.22
2023-01-29T02:50:18.558Z,43.43
2023-01-29T02:53:01.102Z,44.11
2023-01-29T02:55:43.174Z,44.03
2023-01-29T02:58:16.625Z,41.55
2023-01-29T03:00:49.475Z,42.55
2023-01-29T03:03:22.963Z,42.46
2023-01-29T03:06:04.922Z,41.71
2023-01-29T03:08:45.775Z,41.34
2023-01-29T03:11:18.532Z,41.30
2023-01-29T03:14:00.549Z,42.81
2023-01-29T03:16:43.182Z,42.75
2023-01-29T03:19:22.219Z,41.62
2023-01-29T03:22:01.971Z,42.41
2023-01-29T03:25:12.932Z,42.78
2023-01-29T03:28:06.973Z,43.37
2023-01-29T03:30:58.026Z,44.08
2023-01-29T03:33:32.386Z,42.19
2023-01-29T03:36:06.027Z,42.63
2023-01-29T03:38:36.519Z,43.93
2023-01-29T03:41:12.739Z,42.29
2023-01-29T03:43:58.204Z,43.38
2023-01-29T03:46:40.843Z,42.88
2023-01-29T03:49:35.374Z,42.60
2023-01-29T03:52:20.691Z,40.92
2023-01-29T03:55:16.934Z,41.66
2023-01-29T03:58:06.876Z,41.17
2023-01-29T04:00:48.915Z,42.41
2023-01-29T04:03:37.378Z,43.01
2023-01-29T04:06:16.514Z,42.28
2023-01-29T04:08:49.846Z,44.58
2023-01-29T04:11:22.300Z,43.78
2023-01-29T04:13:54.998Z,43.23
2023-01-29T04:16:36.964Z,43.94
2023-01-29T04:19:07.926Z,45.52
2023-01-29T04:21:38.525Z,44.08
2023-01-29T04:24:10.538Z,42.68
2023-01-29T04:26:49.648Z,44.52
2023-01-29T04:29:41.135Z,44.79
2023-01-29T04:32:14.517Z,43.25
2023-01-29T04:34:56.835Z,43.89
2023-01-29T04:37:35.743Z,44.27
2023-01-29T04:40:12.305Z,41.80
2023-01-29T04:42:51.476Z,43.49
2023-01-29T04:45:31.108Z,43.10
2023-01-29T04:48:22.739Z,45.72
2023-01-29T04:51:12.495Z,43.48
2023-01-29T04:53:45.878Z,42.63
2023-01-29T04:56:19.371Z,41.68
2023-01-29T04:58:52.726Z,42.64
2023-01-29T05:01:26.485Z,42.32
2023-01-29T05:03:59.506Z,42.44
2023-01-29T05:06:32.949Z,42.99
2023-01-29T05:09:04.691Z,43.51
2023-01-29T05:11:36.735Z,44.62
2023-01-29T05:14:10.043Z,42.60
2023-01-29T05:16:43.485Z,43.00
2023-01-29T05:19:16.362Z,42.71
2023-01-29T05:21:49.295Z,43.43
2023-01-29T05:24:25.728Z,44.94
2023-01-29T05:27:14.373Z,44.55
2023-01-29T05:29:48.275Z,45.33
2023-01-29T05:32:18.758Z,43.25
2023-01-29T05:34:49.202Z,43.83
2023-01-29T05:37:19.642Z,43.31
2023-01-29T05:39:50.193Z,45.68
2023-01-29T05:42:21.974Z,43.60
2023-01-29T05:44:52.756Z,44.56
2023-01-29T05:47:24.398Z,44.35
2023-01-29T05:49:54.853Z,43.91
2023-01-29T05:52:25.306Z,45.75
2023-01-29T05:54:55.799Z,45.16
2023-01-29T05:57:26.276Z,45.46
2023-01-29T05:59:56.781Z,47.21
2023-01-29T06:02:27.254Z,47.84
2023-01-29T06:04:57.841Z,49.30
2023-01-29T06:07:28.413Z,46.98
2023-01-29T06:09:58.987Z,45.87
2023-01-29T06:12:29.794Z,45.88
2023-01-29T06:15:00.399Z,48.21
2023-01-29T06:17:31.048Z,51.61
2023-01-29T06:20:02.007Z,60.31
2023-01-29T06:22:33.876Z,58.01
2023-01-29T06:25:05.025Z,55.87
2023-01-29T06:27:35.506Z,56.85
2023-01-29T06:30:07.833Z,54.23
2023-01-29T06:32:38.383Z,53.96
2023-01-29T06:35:10.684Z,51.87
2023-01-29T06:37:41.552Z,51.17
2023-01-29T06:40:13.172Z,53.79
2023-01-29T06:42:45.921Z,52.75
2023-01-29T06:45:16.728Z,51.47
2023-01-29T06:47:47.201Z,52.77
2023-01-29T06:50:18.349Z,54.52
2023-01-29T06:52:49.210Z,53.06
2023-01-29T06:55:19.794Z,52.72
2023-01-29T06:57:50.355Z,51.43
2023-01-29T07:00:21.224Z,50.51
2023-01-29T07:02:51.932Z,51.95
2023-01-29T07:05:22.541Z,53.05
2023-01-29T07:07:53.097Z,52.98
2023-01-29T07:10:23.616Z,53.11
2023-01-29T07:12:54.165Z,54.44
2023-01-29T07:15:25.981Z,52.26
2023-01-29T07:18:04.751Z,51.37
2023-01-29T07:20:35.300Z,51.47
2023-01-29T07:23:06.176Z,54.14
2023-01-29T07:25:36.685Z,51.54
2023-01-29T07:28:07.658Z,53.26
2023-01-29T07:30:38.308Z,52.87
2023-01-29T07:33:10.773Z,50.96
2023-01-29T07:35:43.293Z,53.06
2023-01-29T07:38:13.841Z,51.71
2023-01-29T07:40:45.151Z,49.88
2023-01-29T07:43:16.528Z,53.16
2023-01-29T07:45:47.064Z,51.90
2023-01-29T07:48:17.647Z,55.14
2023-01-29T07:50:51.018Z,54.07
2023-01-29T07:53:22.799Z,50.10
2023-01-29T07:55:53.598Z,50.85
2023-01-29T07:58:24.373Z,50.21
2023-01-29T08:00:54.860Z,50.56
2023-01-29T08:03:25.364Z,51.17
2023-01-29T08:05:55.782Z,50.59
2023-01-29T08:08:26.545Z,49.62
2023-01-29T08:10:57.210Z,49.92
2023-01-29T08:13:27.720Z,49.17
2023-01-29T08:16:03.817Z,48.64
2023-01-29T08:18:34.276Z,48.26
2023-01-29T08:21:04.951Z,49.08
2023-01-29T08:23:35.415Z,50.33
2023-01-29T08:26:06.119Z,49.27
2023-01-29T08:28:38.902Z,51.08
2023-01-29T08:31:14.746Z,53.52
2023-01-29T08:33:45.322Z,50.78
2023-01-29T08:36:16.360Z,50.75
2023-01-29T08:38:46.931Z,54.01
2023-01-29T08:41:17.585Z,53.58
2023-01-29T08:43:48.141Z,52.16
2023-01-29T08:46:18.738Z,53.57
2023-01-29T08:48:49.339Z,53.71
2023-01-29T08:51:19.870Z,51.54
2023-01-29T08:53:50.760Z,51.17
2023-01-29T08:56:22.193Z,50.02
2023-01-29T08:58:52.783Z,55.78
2023-01-29T09:01:23.426Z,51.88
2023-01-29T09:03:55.171Z,53.73
2023-01-29T09:06:25.826Z,53.16
2023-01-29T09:08:56.537Z,55.04
2023-01-29T09:11:27.205Z,53.92
2023-01-29T09:13:58.940Z,55.10
2023-01-29T09:16:29.530Z,56.14
2023-01-29T09:19:00.160Z,49.88
2023-01-29T09:21:32.032Z,51.95
2023-01-29T09:24:02.607Z,54.56
2023-01-29T09:26:33.261Z,52.57
2023-01-29T09:29:03.860Z,51.56
2023-01-29T09:31:34.512Z,53.67
2023-01-29T09:34:05.285Z,51.09
2023-01-29T09:36:35.860Z,50.24
2023-01-29T09:39:06.448Z,51.57
2023-01-29T09:41:54.835Z,50.26
2023-01-29T09:44:48.107Z,52.75
2023-01-29T09:47:21.062Z,51.86
2023-01-29T09:49:56.456Z,48.96
2023-01-29T09:52:29.899Z,51.32
2023-01-29T09:55:15.844Z,50.07
2023-01-29T09:57:53.080Z,51.16
2023-01-29T10:00:32.825Z,50.23
2023-01-29T10:03:09.192Z,48.38
2023-01-29T10:05:44.020Z,52.59
2023-01-29T10:08:23.996Z,55.00
2023-01-29T10:11:00.489Z,53.19
2023-01-29T10:13:52.263Z,51.69
2023-01-29T10:16:34.476Z,50.96
2023-01-29T10:19:21.560Z,56.27
2023-01-29T10:22:27.845Z,53.21
2023-01-29T10:25:01.427Z,52.18
2023-01-29T10:27:38.679Z,61.04
2023-01-29T10:30:12.184Z,54.23
2023-01-29T10:32:42.859Z,51.89
2023-01-29T10:35:22.251Z,54.02
2023-01-29T10:37:55.593Z,52.77
2023-01-29T10:40:41.103Z,55.68
2023-01-29T10:43:14.937Z,56.69
2023-01-29T10:46:05.116Z,52.11
2023-01-29T10:48:58.048Z,52.33
2023-01-29T10:51:40.477Z,53.13
2023-01-29T10:54:28.994Z,55.23
2023-01-29T10:57:08.518Z,53.93
2023-01-29T10:59:46.423Z,53.55
2023-01-29T11:02:22.818Z,59.13
2023-01-29T11:04:56.485Z,56.24
2023-01-29T11:07:32.336Z,53.04
2023-01-29T11:10:05.852Z,51.42
2023-01-29T11:12:39.097Z,57.21
2023-01-29T11:15:25.014Z,52.44
2023-01-29T11:21:04.634Z,53.09
2023-01-29T11:23:36.115Z,51.02
2023-01-29T11:26:09.486Z,52.46
2023-01-29T11:28:45.531Z,52.17
2023-01-29T11:31:19.940Z,51.50
2023-01-29T11:33:52.660Z,53.98
2023-01-29T11:36:39.878Z,54.73
2023-01-29T11:39:16.717Z,53.72
2023-01-29T11:41:50.167Z,54.26
2023-01-29T11:44:34.263Z,55.43
2023-01-29T11:47:24.451Z,52.90
2023-01-29T11:50:00.045Z,52.97
2023-01-29T11:52:39.284Z,54.36
2023-01-29T11:55:28.337Z,54.07
2023-01-29T11:58:20.012Z,54.08
2023-01-29T12:00:55.606Z,57.06
2023-01-29T12:03:34.965Z,59.16
2023-01-29T12:06:09.472Z,56.13
2023-01-29T12:08:41.586Z,54.57
2023-01-29T12:11:36.229Z,54.82
2023-01-29T12:14:09.772Z,61.60
2023-01-29T12:16:57.830Z,55.77
2023-01-29T12:19:47.431Z,56.80
2023-01-29T12:22:35.776Z,59.75
2023-01-29T12:25:10.457Z,60.36
2023-01-29T12:28:02.488Z,55.05
2023-01-29T12:30:41.888Z,57.76
2023-01-29T12:33:27.734Z,58.60
2023-01-29T12:36:16.824Z,57.61
2023-01-29T12:38:47.604Z,59.27
2023-01-29T12:41:36.416Z,59.01
2023-01-29T12:44:37.249Z,58.31
2023-01-29T12:47:10.752Z,58.70
2023-01-29T12:49:43.227Z,55.45
2023-01-29T12:52:29.024Z,63.09
2023-01-29T12:55:08.544Z,55.48
2023-01-29T12:57:54.942Z,55.35
2023-01-29T13:00:28.590Z,53.53
2023-01-29T13:03:05.432Z,63.27
2023-01-29T13:05:41.781Z,57.70
2023-01-29T13:08:21.177Z,71.04
2023-01-29T13:10:54.767Z,61.91
2023-01-29T13:13:39.064Z,61.95
2023-01-29T13:16:13.343Z,59.81
2023-01-29T13:18:47.102Z,59.24
2023-01-29T13:21:27.612Z,59.32
2023-01-29T13:24:13.156Z,57.09
2023-01-29T13:26:49.210Z,61.49
2023-01-29T13:29:29.058Z,61.12
2023-01-29T13:32:05.673Z,58.95
2023-01-29T13:34:49.509Z,57.45
2023-01-29T13:37:43.204Z,55.41
2023-01-29T13:40:22.647Z,56.06
2023-01-29T13:42:56.556Z,57.20
2023-01-29T13:45:31.077Z,57.25
2023-01-29T13:48:24.238Z,56.16
2023-01-29T13:50:57.046Z,56.37
2023-01-29T13:53:40.055Z,60.57
2023-01-29T13:56:36.126Z,59.34
2023-01-29T13:59:08.175Z,56.75
2023-01-29T14:01:54.950Z,56.18
2023-01-29T14:04:29.475Z,56.36
2023-01-29T14:07:03.340Z,59.40
2023-01-29T14:09:43.488Z,63.21
2023-01-29T14:12:26.637Z,57.08
2023-01-29T14:15:00.181Z,54.55
2023-01-29T14:17:32.040Z,57.10
2023-01-29T14:20:25.791Z,57.33
2023-01-29T14:22:59.831Z,58.48
2023-01-29T14:25:33.371Z,59.92
2023-01-29T14:28:11.887Z,62.51
2023-01-29T14:30:44.437Z,59.84
2023-01-29T14:33:37.178Z,57.96
2023-01-29T14:36:16.237Z,56.46
2023-01-29T14:38:52.661Z,54.29
2023-01-29T14:41:30.093Z,53.85
2023-01-29T14:44:37.590Z,55.77
2023-01-29T14:47:21.831Z,59.00
2023-01-29T14:50:07.105Z,57.39
2023-01-29T14:52:44.519Z,54.67
2023-01-29T14:55:39.089Z,60.13
2023-01-29T14:58:19.342Z,55.37
2023-01-29T15:00:56.869Z,57.01
2023-01-29T15:03:43.629Z,62.29
2023-01-29T15:06:21.341Z,55.64
2023-01-29T15:09:32.712Z,55.36
2023-01-29T15:12:03.039Z,58.46
2023-01-29T15:14:42.443Z,55.21
2023-01-29T15:17:18.900Z,59.04
2023-01-29T15:19:51.522Z,60.89
2023-01-29T15:22:30.502Z,62.70
2023-01-29T15:25:09.146Z,56.92
2023-01-29T15:27:47.265Z,59.83
2023-01-29T15:30:31.009Z,59.05
2023-01-29T15:33:06.715Z,56.70
2023-01-29T15:35:44.608Z,60.65
2023-01-29T15:38:22.259Z,64.98
2023-01-29T15:41:02.515Z,60.37
2023-01-29T15:43:41.844Z,57.16
2023-01-29T15:46:29.146Z,58.65
2023-01-29T15:49:05.635Z,54.77
2023-01-29T15:51:39.790Z,57.30
2023-01-29T15:54:16.847Z,55.37
2023-01-29T15:56:54.467Z,57.03
2023-01-29T15:59:36.060Z,59.02
2023-01-29T16:02:31.184Z,61.24
2023-01-29T16:05:04.208Z,60.18
2023-01-29T16:07:40.207Z,55.80
2023-01-29T16:10:21.019Z,55.02
2023-01-29T16:12:56.844Z,54.87
2023-01-29T16:15:42.494Z,54.76
2023-01-29T16:18:28.246Z,55.80
2023-01-29T16:21:07.643Z,54.74
2023-01-29T16:23:44.800Z,55.96
2023-01-29T16:26:25.916Z,56.23
2023-01-29T16:28:59.583Z,56.77
2023-01-29T16:31:37.521Z,53.58
2023-01-29T16:34:19.326Z,50.94
2023-01-29T16:36:53.506Z,50.81
2023-01-29T16:39:35.082Z,57.45
2023-01-29T16:42:22.074Z,52.81
2023-01-29T16:45:12.234Z,58.58
2023-01-29T16:47:47.125Z,53.78
2023-01-29T16:50:54.268Z,55.58
2023-01-29T16:53:25.384Z,54.52
2023-01-29T16:56:01.905Z,54.72
2023-01-29T16:58:38.368Z,60.18
2023-01-29T17:01:15.664Z,65.46
2023-01-29T17:03:56.896Z,68.57
2023-01-29T17:06:33.916Z,60.98
2023-01-29T17:09:10.485Z,65.15
2023-01-29T17:11:46.694Z,61.18
2023-01-29T17:14:27.959Z,59.65
2023-01-29T17:17:09.972Z,56.18
2023-01-29T17:19:44.182Z,65.70
2023-01-29T17:25:20.109Z,66.71
2023-01-29T17:27:57.309Z,66.08
2023-01-29T17:30:35.084Z,69.26
2023-01-29T17:33:29.934Z,68.50
2023-01-29T17:36:04.504Z,65.33
2023-01-29T17:38:40.769Z,59.11
2023-01-29T17:41:24.402Z,64.31
2023-01-29T17:43:58.881Z,64.81
2023-01-29T17:46:33.854Z,58.98
2023-01-29T17:49:07.649Z,60.01
2023-01-29T17:51:41.520Z,63.52
2023-01-29T17:54:16.863Z,62.71
2023-01-29T17:56:53.562Z,64.44
2023-01-29T17:59:29.697Z,75.23
2023-01-29T18:02:02.360Z,63.52
2023-01-29T18:04:35.283Z,58.05
2023-01-29T18:07:20.317Z,56.84
2023-01-29T18:09:56.217Z,58.67
2023-01-29T18:12:33.143Z,58.57
2023-01-29T18:15:09.315Z,56.87
2023-01-29T18:17:45.416Z,55.00
2023-01-29T18:20:25.831Z,55.53
2023-01-29T18:22:59.279Z,59.84
2023-01-29T18:25:31.696Z,58.81
2023-01-29T18:28:09.640Z,54.89
2023-01-29T18:30:44.698Z,53.03
2023-01-29T18:33:18.525Z,62.48
2023-01-29T18:36:01.870Z,57.67
2023-01-29T18:38:35.669Z,62.80
2023-01-29T18:41:11.989Z,63.09
2023-01-29T18:43:45.273Z,63.16
2023-01-29T18:46:22.102Z,58.96
2023-01-29T18:49:03.661Z,56.09
2023-01-29T18:54:32.905Z,54.14
2023-01-29T18:57:14.041Z,59.24
2023-01-29T18:59:47.677Z,57.18
2023-01-29T19:02:21.252Z,59.42
2023-01-29T19:05:04.589Z,59.36
2023-01-29T19:07:39.108Z,73.88
2023-01-29T19:10:17.973Z,62.09
2023-01-29T19:12:51.917Z,64.12
2023-01-29T19:15:31.707Z,62.49
2023-01-29T19:18:05.571Z,61.58
2023-01-29T19:20:39.547Z,63.11
2023-01-29T19:23:17.778Z,60.62
2023-01-29T19:25:58.709Z,59.17
2023-01-29T19:28:50.264Z,66.74
2023-01-29T19:31:26.759Z,65.17
2023-01-29T19:34:08.305Z,59.14
2023-01-29T19:36:41.099Z,66.59
2023-01-29T19:39:16.720Z,68.83
2023-01-29T19:41:54.345Z,61.97
2023-01-29T19:47:34.606Z,59.81
2023-01-29T19:50:12.213Z,58.97
2023-01-29T19:52:51.633Z,58.49
2023-01-29T19:55:26.064Z,60.09
2023-01-29T19:57:59.725Z,60.11
2023-01-29T20:00:34.752Z,62.44
2023-01-29T20:03:15.614Z,62.21
2023-01-29T20:05:50.277Z,68.75
2023-01-29T20:08:29.534Z,58.13
2023-01-29T20:11:05.762Z,59.02
2023-01-29T20:13:38.631Z,61.15
2023-01-29T20:16:11.736Z,67.90
2023-01-29T20:18:44.569Z,60.16
2023-01-29T20:21:29.118Z,61.29
2023-01-29T20:24:13.856Z,59.96
2023-01-29T20:26:46.514Z,59.16
2023-01-29T20:32:16.506Z,61.64
2023-01-29T20:34:52.769Z,62.60
2023-01-29T20:37:30.182Z,61.12
2023-01-29T20:40:04.423Z,64.29
2023-01-29T20:42:42.396Z,76.25
2023-01-29T20:45:16.757Z,79.97
2023-01-29T20:47:55.677Z,70.05
2023-01-29T20:50:30.014Z,65.92
2023-01-29T20:56:04.487Z,58.48
2023-01-29T20:58:42.489Z,62.94
2023-01-29T21:01:18.353Z,64.63
2023-01-29T21:03:53.378Z,71.48
2023-01-29T21:06:34.577Z,76.83
2023-01-29T21:09:08.777Z,75.01
2023-01-29T21:11:53.666Z,63.37
2023-01-29T21:14:37.201Z,63.86
2023-01-29T21:17:09.946Z,59.97
2023-01-29T21:19:53.436Z,63.27
2023-01-29T21:22:27.251Z,64.10
2023-01-29T21:25:06.276Z,65.04
2023-01-29T21:27:37.596Z,62.83
2023-01-29T21:30:16.521Z,61.64
2023-01-29T21:32:51.370Z,73.39
2023-01-29T21:35:25.482Z,67.66
2023-01-29T21:38:02.240Z,62.03
2023-01-29T21:40:38.427Z,69.10
2023-01-29T21:43:15.301Z,68.56
2023-01-29T21:45:49.426Z,69.22
2023-01-29T21:48:23.709Z,62.03
2023-01-29T21:51:06.285Z,66.38
2023-01-29T21:53:42.943Z,63.98
2023-01-29T21:56:16.801Z,64.76
2023-01-29T21:59:01.072Z,63.15
2023-01-29T22:01:38.128Z,70.51
2023-01-29T22:04:21.193Z,63.01
2023-01-29T22:06:57.394Z,57.93
2023-01-29T22:09:33.306Z,57.72
2023-01-29T22:12:04.190Z,59.27
2023-01-29T22:14:35.538Z,57.61
2023-01-29T22:17:10.626Z,62.82
2023-01-29T22:19:42.723Z,61.95
2023-01-29T22:22:16.012Z,62.90
2023-01-29T22:24:46.920Z,73.06
2023-01-29T22:27:17.653Z,73.09
2023-01-29T22:29:48.571Z,68.59
2023-01-29T22:32:19.423Z,69.59
2023-01-29T22:34:50.011Z,63.91
2023-01-29T22:37:21.876Z,65.45
2023-01-29T22:39:53.183Z,62.79
2023-01-29T22:42:24.146Z,61.51
2023-01-29T22:44:56.051Z,67.47
2023-01-29T22:47:26.632Z,57.70
2023-01-29T22:49:57.388Z,57.49
2023-01-29T22:52:42.965Z,66.47
2023-01-29T22:55:14.742Z,64.11
2023-01-29T22:57:46.868Z,59.58
2023-01-29T23:00:20.168Z,64.06
2023-01-29T23:02:51.720Z,64.61
2023-01-29T23:05:22.741Z,64.57
2023-01-29T23:07:53.840Z,68.12
2023-01-29T23:10:28.072Z,67.55
2023-01-29T23:12:58.686Z,66.33
2023-01-29T23:15:29.278Z,64.30
2023-01-29T23:18:00.360Z,70.78
2023-01-29T23:20:31.551Z,61.08
2023-01-29T23:23:02.387Z,68.78
2023-01-29T23:25:53.820Z,66.50
2023-01-29T23:28:25.796Z,59.55
2023-01-29T23:30:56.883Z,59.39
2023-01-29T23:33:30.613Z,61.06
2023-01-29T23:36:01.313Z,64.53
2023-01-29T23:38:34.949Z,62.56
2023-01-29T23:41:05.836Z,64.08
2023-01-29T23:43:36.870Z,60.65
2023-01-29T23:46:07.951Z,64.25
2023-01-29T23:48:40.021Z,59.83
2023-01-29T23:51:11.318Z,60.48
2023-01-29T23:53:42.403Z,70.17
2023-01-29T23:56:13.309Z,65.50
2023-01-29T23:58:45.004Z,63.91
